Time;durP1;ratioP1;P1;durP2;ratioP2;P2;SDS_P1;SDS_P2;PMS_P1;PMS_P2;Temp;Humidity;BMP_temperature;BMP_pressure;BME280_temperature;BME280_humidity;BME280_pressure;Samples;Min_cycle;Max_cycle;Signal;HPM_P1;HPM_P2
2021/07/24 00:09:04;;;;;;;13.32;10.75;;;20.00;99.90;;;;;;4961488;28;20062;-84
2021/07/24 00:11:32;;;;;;;12.88;10.38;;;19.90;99.90;;;;;;5007058;28;20152;-83
2021/07/24 00:13:59;;;;;;;14.57;10.63;;;19.70;99.90;;;;;;5006426;28;20050;-83
2021/07/24 00:16:28;;;;;;;13.65;11.25;;;19.60;99.90;;;;;;5006847;28;20601;-83
2021/07/24 00:19:03;;;;;;;15.38;11.43;;;19.50;99.90;;;;;;5007048;28;20050;-83
2021/07/24 00:21:30;;;;;;;12.40;10.05;;;19.50;99.90;;;;;;5006172;28;20057;-83
2021/07/24 00:23:57;;;;;;;18.10;10.90;;;19.60;99.90;;;;;;5006887;28;20054;-84
2021/07/24 00:26:24;;;;;;;13.98;11.07;;;19.60;99.90;;;;;;5007080;28;20082;-83
2021/07/24 00:28:52;;;;;;;14.95;10.75;;;19.70;99.90;;;;;;5006846;28;20498;-83
2021/07/24 00:31:19;;;;;;;12.63;10.90;;;19.70;99.90;;;;;;5006274;28;20061;-83
2021/07/24 00:33:47;;;;;;;14.15;11.23;;;19.60;99.90;;;;;;5005806;28;20074;-83
2021/07/24 00:36:14;;;;;;;14.27;10.52;;;19.70;99.90;;;;;;5006229;28;20046;-83
2021/07/24 00:38:41;;;;;;;11.88;10.02;;;19.70;99.90;;;;;;5006016;28;20077;-83
2021/07/24 00:41:15;;;;;;;13.43;10.10;;;19.70;99.90;;;;;;5006829;28;20109;-82
2021/07/24 00:43:45;;;;;;;16.00;10.80;;;19.60;99.90;;;;;;4989708;28;20106;-83
2021/07/24 00:46:14;;;;;;;16.05;11.48;;;19.60;99.90;;;;;;5006545;28;20157;-82
2021/07/24 00:48:43;;;;;;;12.52;10.70;;;19.60;99.90;;;;;;5007826;28;20139;-82
2021/07/24 00:51:11;;;;;;;13.95;11.52;;;19.50;99.90;;;;;;5013292;28;20038;-82
2021/07/24 00:53:39;;;;;;;13.32;11.27;;;19.40;99.90;;;;;;5012498;28;20058;-82
2021/07/24 00:56:06;;;;;;;14.55;12.55;;;19.40;99.90;;;;;;5012590;28;20073;-82
2021/07/24 00:58:36;;;;;;;15.40;11.32;;;19.30;99.90;;;;;;5005796;28;20054;-83
2021/07/24 01:01:05;;;;;;;14.20;11.23;;;19.30;99.90;;;;;;5006551;28;20086;-81
2021/07/24 01:03:32;;;;;;;14.27;11.32;;;19.20;99.90;;;;;;5004847;28;20057;-84
2021/07/24 01:06:00;;;;;;;15.07;11.27;;;19.20;99.90;;;;;;5005036;28;20495;-83
2021/07/24 01:08:32;;;;;;;14.48;11.55;;;19.10;99.90;;;;;;5004234;28;20118;-84
2021/07/24 01:10:59;;;;;;;14.13;12.10;;;19.10;99.90;;;;;;5004819;28;20054;-84
2021/07/24 01:13:26;;;;;;;14.63;11.27;;;19.10;99.90;;;;;;5003752;28;20042;-84
2021/07/24 01:15:54;;;;;;;17.27;11.07;;;19.10;99.90;;;;;;5005301;28;20054;-84
2021/07/24 01:18:21;;;;;;;13.45;10.88;;;19.10;99.90;;;;;;5005076;28;20090;-84
2021/07/24 01:20:52;;;;;;;13.40;11.88;;;19.10;99.90;;;;;;5005265;28;20053;-85
2021/07/24 01:23:21;;;;;;;16.80;11.52;;;19.00;99.90;;;;;;5005124;28;20081;-85
2021/07/24 01:25:50;;;;;;;15.00;11.63;;;19.00;99.90;;;;;;5004828;28;20058;-87
2021/07/24 01:28:24;;;;;;;13.18;11.57;;;19.00;99.90;;;;;;5004903;28;20054;-86
2021/07/24 01:30:51;;;;;;;16.30;11.68;;;19.10;99.90;;;;;;5008494;28;20054;-87
2021/07/24 01:33:18;;;;;;;15.02;11.55;;;19.00;99.90;;;;;;5008816;28;20034;-87
2021/07/24 01:35:46;;;;;;;17.05;12.13;;;18.90;99.90;;;;;;5008843;28;20057;-87
2021/07/24 01:38:13;;;;;;;15.27;11.70;;;18.90;99.90;;;;;;5008727;28;20060;-87
2021/07/24 01:40:42;;;;;;;13.68;11.35;;;18.80;99.90;;;;;;5008567;28;20054;-87
2021/07/24 01:43:09;;;;;;;15.60;11.05;;;18.80;99.90;;;;;;5008246;28;20082;-86
2021/07/24 01:45:37;;;;;;;13.45;11.48;;;18.80;99.90;;;;;;5005461;28;20129;-85
2021/07/24 01:48:08;;;;;;;13.88;11.65;;;18.70;99.90;;;;;;5005808;28;20507;-85
2021/07/24 01:53:21;;;;;;;15.25;11.82;;;18.50;99.90;;;;;;5002335;28;20056;-82
2021/07/24 01:55:53;;;;;;;16.02;11.43;;;18.30;99.90;;;;;;5002561;28;20134;-81
2021/07/24 01:58:28;;;;;;;14.70;11.27;;;18.20;99.90;;;;;;5001466;28;20056;-80
2021/07/24 02:00:56;;;;;;;18.00;11.85;;;18.20;99.90;;;;;;5002313;28;20051;-81
2021/07/24 02:06:00;;;;;;;16.10;12.20;;;18.20;99.90;;;;;;4959723;26;20059;-77
2021/07/24 02:08:32;;;;;;;15.38;11.07;;;18.20;99.90;;;;;;4960331;28;20055;-80
2021/07/24 02:11:01;;;;;;;17.15;12.57;;;18.30;99.90;;;;;;4956555;29;20122;-78
2021/07/24 02:13:30;;;;;;;15.90;12.75;;;18.30;99.90;;;;;;4957198;29;20130;-77
2021/07/24 02:15:58;;;;;;;21.58;13.77;;;18.40;99.90;;;;;;4958087;29;20497;-78
2021/07/24 02:18:25;;;;;;;18.48;12.70;;;18.40;99.90;;;;;;4956671;29;20054;-77
2021/07/24 02:20:54;;;;;;;16.40;11.98;;;18.40;99.90;;;;;;4957998;29;20139;-79
2021/07/24 02:23:21;;;;;;;17.08;11.68;;;18.50;99.90;;;;;;4958417;29;20176;-80
2021/07/24 02:25:48;;;;;;;13.18;10.93;;;18.50;99.90;;;;;;4958586;29;20059;-78
2021/07/24 02:28:16;;;;;;;15.18;11.80;;;18.40;99.90;;;;;;4965642;29;20059;-79
2021/07/24 02:30:43;;;;;;;11.98;10.68;;;18.40;99.90;;;;;;4956506;29;20134;-79
2021/07/24 02:33:11;;;;;;;15.35;11.45;;;18.40;99.90;;;;;;4956984;29;20051;-79
2021/07/24 02:35:38;;;;;;;13.98;11.27;;;18.40;99.90;;;;;;4956647;29;20468;-79
2021/07/24 02:38:06;;;;;;;14.55;12.02;;;18.30;99.90;;;;;;4956946;29;20098;-79
2021/07/24 02:40:33;;;;;;;14.70;11.85;;;18.10;99.90;;;;;;4955226;28;20051;-79
2021/07/24 02:42:59;;;;;;;13.40;12.00;;;18.10;99.90;;;;;;4958619;29;20058;-80
2021/07/24 02:45:28;;;;;;;16.98;13.32;;;17.90;99.90;;;;;;4961137;29;20146;-79
2021/07/24 02:47:54;;;;;;;19.25;12.13;;;17.70;99.90;;;;;;4959318;29;20472;-79
2021/07/24 02:50:22;;;;;;;14.65;11.93;;;17.70;99.90;;;;;;4956366;29;20434;-78
2021/07/24 02:52:48;;;;;;;14.13;12.27;;;17.70;99.90;;;;;;4955841;29;20051;-78
2021/07/24 02:55:16;;;;;;;15.85;12.27;;;17.70;99.90;;;;;;4955754;29;20134;-77
2021/07/24 02:57:43;;;;;;;17.83;12.75;;;17.60;99.90;;;;;;4956335;29;20047;-78
2021/07/24 03:00:11;;;;;;;16.00;12.45;;;17.50;99.90;;;;;;4955450;29;20051;-78
2021/07/24 03:02:39;;;;;;;16.52;12.88;;;17.60;99.90;;;;;;4956082;29;20094;-78
2021/07/24 03:05:07;;;;;;;16.90;12.63;;;17.70;99.90;;;;;;4958193;29;20423;-78
2021/07/24 03:07:33;;;;;;;19.00;12.55;;;17.70;99.90;;;;;;4958519;29;20111;-79
2021/07/24 03:10:00;;;;;;;17.98;12.93;;;17.80;99.90;;;;;;4959423;29;20109;-78
2021/07/24 03:12:29;;;;;;;15.55;12.70;;;17.80;99.90;;;;;;4958557;29;20563;-79
2021/07/24 03:14:56;;;;;;;18.23;12.82;;;17.80;99.90;;;;;;4956119;29;20079;-77
2021/07/24 03:17:23;;;;;;;16.85;12.45;;;17.80;99.90;;;;;;4955541;29;20054;-78
2021/07/24 03:19:52;;;;;;;18.05;12.73;;;17.80;99.90;;;;;;4955185;29;20130;-77
2021/07/24 03:22:19;;;;;;;18.25;12.57;;;17.80;99.90;;;;;;4955185;29;20078;-77
2021/07/24 03:24:45;;;;;;;14.80;12.23;;;17.80;99.90;;;;;;4954424;29;20051;-78
2021/07/24 03:27:12;;;;;;;15.55;11.93;;;17.80;99.90;;;;;;4955121;29;20090;-79
2021/07/24 03:29:39;;;;;;;15.77;11.88;;;17.80;99.90;;;;;;4955675;29;20126;-79
2021/07/24 03:32:07;;;;;;;14.57;11.98;;;17.90;99.90;;;;;;4955359;29;20130;-79
2021/07/24 03:34:34;;;;;;;14.00;12.55;;;17.90;99.90;;;;;;4954719;29;20397;-79
2021/07/24 03:37:02;;;;;;;13.82;11.27;;;17.90;99.90;;;;;;4955922;29;20051;-79
2021/07/24 03:39:29;;;;;;;15.70;11.38;;;17.80;99.90;;;;;;4955651;29;20134;-80
2021/07/24 03:41:56;;;;;;;14.10;11.40;;;17.80;99.90;;;;;;4955343;29;20134;-79
2021/07/24 03:44:22;;;;;;;14.38;11.85;;;17.80;99.90;;;;;;4955336;29;20149;-78
2021/07/24 03:46:49;;;;;;;14.05;12.18;;;17.80;99.90;;;;;;4955304;29;20065;-78
2021/07/24 03:49:16;;;;;;;15.25;11.88;;;17.70;99.90;;;;;;4955118;29;20086;-78
2021/07/24 03:51:43;;;;;;;17.88;12.48;;;17.70;99.90;;;;;;4954019;28;20430;-78
2021/07/24 03:54:11;;;;;;;17.42;13.82;;;17.70;99.90;;;;;;4955179;29;20057;-79
2021/07/24 03:56:38;;;;;;;15.77;13.15;;;17.70;99.90;;;;;;4953674;29;20083;-79
2021/07/24 03:59:05;;;;;;;16.52;13.68;;;17.80;99.90;;;;;;4954555;29;20429;-78
2021/07/24 04:01:32;;;;;;;18.45;13.77;;;17.80;99.90;;;;;;4954633;29;20603;-77
2021/07/24 04:03:59;;;;;;;16.27;13.93;;;17.90;99.90;;;;;;4953755;29;20102;-77
2021/07/24 04:06:27;;;;;;;19.13;13.63;;;17.90;99.90;;;;;;4953896;29;20061;-77
2021/07/24 04:08:57;;;;;;;19.52;13.68;;;17.90;99.90;;;;;;4953931;29;20051;-78
2021/07/24 04:11:26;;;;;;;14.55;12.65;;;17.90;99.90;;;;;;4953946;29;20055;-76
2021/07/24 04:13:53;;;;;;;15.90;13.23;;;17.90;99.90;;;;;;4953342;29;20047;-76
2021/07/24 04:16:20;;;;;;;18.45;12.07;;;18.00;99.90;;;;;;4953600;29;20051;-76
2021/07/24 04:18:47;;;;;;;15.75;12.80;;;18.10;99.90;;;;;;4953668;29;20090;-78
2021/07/24 04:21:14;;;;;;;16.63;13.32;;;18.30;99.90;;;;;;4953625;29;20055;-75
2021/07/24 04:23:41;;;;;;;15.15;13.05;;;18.40;99.90;;;;;;4953877;29;20411;-77
2021/07/24 04:26:08;;;;;;;17.67;12.77;;;18.50;99.90;;;;;;4953518;29;20508;-78
2021/07/24 04:28:36;;;;;;;15.55;12.77;;;18.70;99.90;;;;;;4953599;29;20047;-77
2021/07/24 04:31:03;;;;;;;14.48;12.93;;;18.70;99.90;;;;;;4953677;29;20141;-77
2021/07/24 04:33:30;;;;;;;16.70;14.00;;;18.70;99.90;;;;;;4953266;29;20050;-78
2021/07/24 04:35:57;;;;;;;16.90;13.98;;;18.70;99.90;;;;;;4953613;29;20051;-77
2021/07/24 04:38:24;;;;;;;18.08;13.73;;;18.70;99.90;;;;;;4953655;29;20051;-79
2021/07/24 04:40:51;;;;;;;17.08;14.15;;;18.60;99.90;;;;;;4953366;29;20508;-77
2021/07/24 04:43:19;;;;;;;18.25;13.50;;;18.70;99.90;;;;;;4953039;29;20134;-76
2021/07/24 04:45:47;;;;;;;15.70;14.10;;;18.70;99.90;;;;;;4953653;29;20397;-77
2021/07/24 04:48:14;;;;;;;18.10;15.52;;;18.70;99.90;;;;;;4953125;29;20098;-79
2021/07/24 04:50:43;;;;;;;18.23;15.02;;;18.80;99.90;;;;;;4953565;29;20051;-78
2021/07/24 04:53:11;;;;;;;18.77;15.90;;;18.80;99.90;;;;;;4952864;29;20055;-78
2021/07/24 04:55:39;;;;;;;21.38;15.75;;;18.80;99.90;;;;;;4953250;29;20076;-78
2021/07/24 04:58:07;;;;;;;20.63;16.02;;;18.90;99.90;;;;;;4953319;29;20114;-79
2021/07/24 05:00:37;;;;;;;20.77;15.82;;;19.00;99.90;;;;;;4953438;29;20058;-79
2021/07/24 05:03:05;;;;;;;20.27;15.73;;;19.00;99.90;;;;;;4960064;28;20197;-79
2021/07/24 05:05:32;;;;;;;18.95;15.10;;;19.10;99.90;;;;;;4963613;28;20154;-80
2021/07/24 05:07:59;;;;;;;17.70;15.38;;;19.20;99.90;;;;;;4966561;28;20133;-78
2021/07/24 05:10:26;;;;;;;21.58;16.55;;;19.20;99.90;;;;;;4962696;28;20077;-78
2021/07/24 05:12:56;;;;;;;19.13;15.63;;;19.30;99.90;;;;;;4957587;28;20075;-78
2021/07/24 05:15:22;;;;;;;19.65;15.95;;;19.40;99.90;;;;;;4957498;29;20105;-77
2021/07/24 05:17:50;;;;;;;19.17;15.68;;;19.40;99.90;;;;;;4960171;28;20075;-78
2021/07/24 05:20:18;;;;;;;20.15;15.88;;;19.50;99.90;;;;;;4959361;28;20081;-79
2021/07/24 05:22:45;;;;;;;19.38;15.73;;;19.60;99.90;;;;;;4963640;28;20053;-79
2021/07/24 05:25:12;;;;;;;17.08;15.20;;;19.80;99.90;;;;;;4960206;28;20564;-78
2021/07/24 05:27:39;;;;;;;18.50;15.55;;;19.90;99.90;;;;;;4959116;28;20055;-80
2021/07/24 05:30:07;;;;;;;25.05;16.60;;;19.90;99.90;;;;;;4964772;28;20047;-78
2021/07/24 05:32:35;;;;;;;21.02;16.10;;;20.10;99.90;;;;;;4976062;28;20547;-78
2021/07/24 05:35:02;;;;;;;18.23;15.68;;;20.20;99.90;;;;;;4976485;28;20054;-78
2021/07/24 05:37:30;;;;;;;20.33;15.85;;;20.30;99.90;;;;;;4976395;28;20051;-77
2021/07/24 05:39:57;;;;;;;15.68;13.77;;;20.40;99.90;;;;;;4970213;28;20075;-78
2021/07/24 05:42:24;;;;;;;17.15;13.98;;;20.70;99.90;;;;;;4956210;29;20169;-77
2021/07/24 05:44:50;;;;;;;21.88;15.88;;;20.80;99.90;;;;;;4960053;28;20044;-77
2021/07/24 05:47:17;;;;;;;19.60;14.18;;;21.00;99.90;;;;;;4965222;28;20133;-77
2021/07/24 05:49:44;;;;;;;19.52;15.00;;;21.20;99.90;;;;;;4966878;28;20114;-78
2021/07/24 05:52:12;;;;;;;17.60;15.10;;;21.50;99.90;;;;;;4971514;28;20181;-78
2021/07/24 05:54:41;;;;;;;23.30;15.43;;;21.90;99.90;;;;;;4974772;28;20047;-78
2021/07/24 05:57:08;;;;;;;20.92;15.82;;;22.30;99.90;;;;;;4975240;28;20130;-77
2021/07/24 05:59:36;;;;;;;18.50;15.73;;;22.60;99.90;;;;;;4976389;28;20520;-78
2021/07/24 06:02:05;;;;;;;18.50;15.00;;;22.80;99.90;;;;;;4975691;28;20338;-77
2021/07/24 06:04:32;;;;;;;19.13;15.18;;;23.00;99.90;;;;;;4973909;28;20118;-77
2021/07/24 06:06:59;;;;;;;18.25;15.30;;;23.20;99.90;;;;;;4974408;28;20130;-79
2021/07/24 06:09:26;;;;;;;20.65;15.77;;;23.30;99.90;;;;;;4974570;28;20079;-78
2021/07/24 06:11:54;;;;;;;19.67;16.30;;;23.30;99.90;;;;;;4974942;28;20142;-77
2021/07/24 06:14:22;;;;;;;17.48;15.57;;;23.30;99.90;;;;;;4973789;28;20042;-77
2021/07/24 06:16:49;;;;;;;17.67;15.68;;;23.40;99.90;;;;;;4974957;28;20147;-77
2021/07/24 06:19:16;;;;;;;18.13;16.05;;;23.30;99.90;;;;;;4974933;28;20471;-79
2021/07/24 06:21:43;;;;;;;19.08;16.55;;;23.40;99.90;;;;;;4975176;28;20133;-77
2021/07/24 06:24:10;;;;;;;18.73;15.77;;;23.50;99.90;;;;;;4974488;28;20078;-78
2021/07/24 06:26:37;;;;;;;18.10;16.20;;;23.30;99.90;;;;;;4975825;28;20090;-78
2021/07/24 06:29:06;;;;;;;19.35;14.85;;;23.20;99.90;;;;;;4975081;28;20471;-77
2021/07/24 06:31:33;;;;;;;16.08;14.45;;;23.20;99.90;;;;;;4974807;28;20047;-78
2021/07/24 06:34:02;;;;;;;18.83;15.68;;;23.10;99.90;;;;;;4975226;28;20050;-76
2021/07/24 06:36:29;;;;;;;17.13;15.27;;;22.90;99.90;;;;;;4977639;28;20097;-77
2021/07/24 06:38:56;;;;;;;19.95;15.27;;;22.90;99.90;;;;;;4977617;28;20527;-76
2021/07/24 06:41:23;;;;;;;17.70;14.82;;;22.80;99.90;;;;;;4976265;28;20055;-76
2021/07/24 06:43:50;;;;;;;18.17;14.98;;;22.80;99.90;;;;;;4975443;28;20134;-77
2021/07/24 06:46:20;;;;;;;18.20;15.68;;;22.70;99.90;;;;;;4975564;28;20059;-77
2021/07/24 06:48:47;;;;;;;22.63;15.05;;;22.60;99.90;;;;;;4975409;28;20055;-76
2021/07/24 06:51:13;;;;;;;16.90;14.60;;;22.30;99.90;;;;;;4975750;28;20142;-76
2021/07/24 06:53:40;;;;;;;21.02;14.65;;;22.10;99.90;;;;;;4975858;28;20061;-77
2021/07/24 06:56:07;;;;;;;20.48;14.70;;;22.00;99.90;;;;;;4975850;28;20069;-77
2021/07/24 06:58:34;;;;;;;18.38;14.00;;;21.90;99.90;;;;;;4975927;28;20051;-76
2021/07/24 07:01:01;;;;;;;19.92;14.57;;;22.00;99.90;;;;;;4975951;28;20089;-76
2021/07/24 07:03:29;;;;;;;16.33;14.63;;;22.10;99.90;;;;;;4976671;28;20082;-78
2021/07/24 07:05:56;;;;;;;16.52;13.60;;;22.20;99.90;;;;;;4975570;28;20047;-77
2021/07/24 07:08:24;;;;;;;17.30;14.95;;;22.30;99.90;;;;;;4975825;28;20599;-77
2021/07/24 07:10:50;;;;;;;16.25;14.50;;;22.40;99.90;;;;;;4974586;28;20086;-78
2021/07/24 07:13:17;;;;;;;18.85;15.25;;;22.40;99.90;;;;;;4974700;28;20137;-77
2021/07/24 07:15:44;;;;;;;21.83;14.52;;;22.50;99.90;;;;;;4974304;28;20057;-78
2021/07/24 07:18:11;;;;;;;17.58;14.85;;;22.40;99.90;;;;;;4974183;28;20051;-78
2021/07/24 07:20:40;;;;;;;20.80;14.45;;;22.40;99.90;;;;;;4974316;28;20093;-78
2021/07/24 07:23:06;;;;;;;14.88;13.27;;;22.80;99.90;;;;;;4973634;28;20141;-78
2021/07/24 07:25:33;;;;;;;15.27;13.30;;;23.20;99.90;;;;;;4973960;28;20139;-77
2021/07/24 07:28:00;;;;;;;15.88;14.32;;;23.60;99.90;;;;;;4973935;28;20097;-77
2021/07/24 07:30:27;;;;;;;17.67;14.30;;;23.60;99.90;;;;;;4974305;28;20078;-76
2021/07/24 07:32:54;;;;;;;15.77;14.10;;;23.60;99.90;;;;;;4974457;28;20133;-78
2021/07/24 07:35:21;;;;;;;14.85;13.35;;;23.60;99.90;;;;;;4975602;28;20125;-77
2021/07/24 07:37:53;;;;;;;15.13;13.52;;;23.50;99.90;;;;;;4974098;28;20051;-78
2021/07/24 07:40:21;;;;;;;17.50;13.70;;;23.40;99.90;;;;;;4973701;28;20463;-78
2021/07/24 07:42:48;;;;;;;16.25;12.88;;;23.20;99.90;;;;;;4974248;28;20078;-77
2021/07/24 07:45:15;;;;;;;18.30;14.00;;;23.10;99.90;;;;;;4976080;28;20126;-79
2021/07/24 07:47:42;;;;;;;14.88;13.00;;;23.10;99.90;;;;;;4976524;28;20087;-78
2021/07/24 07:50:10;;;;;;;16.00;13.50;;;23.00;99.90;;;;;;4975453;28;20134;-78
2021/07/24 07:52:37;;;;;;;17.95;13.77;;;23.00;99.90;;;;;;4976473;28;20196;-81
2021/07/24 07:55:06;;;;;;;19.83;13.57;;;23.00;99.90;;;;;;4975782;28;20129;-77
2021/07/24 07:57:33;;;;;;;16.08;13.15;;;23.00;99.90;;;;;;4975761;28;20094;-79
2021/07/24 08:00:00;;;;;;;18.10;13.80;;;23.10;99.90;;;;;;4976478;28;20050;-79
2021/07/24 08:02:27;;;;;;;15.93;13.95;;;23.10;99.90;;;;;;4975952;28;20047;-78
2021/07/24 08:04:54;;;;;;;19.33;13.48;;;23.00;99.90;;;;;;4986984;23;20158;-84
2021/07/24 08:07:21;;;;;;;15.65;13.05;;;23.20;99.90;;;;;;4959356;29;20079;-85
2021/07/24 08:09:48;;;;;;;17.27;13.77;;;23.40;99.90;;;;;;4965279;29;20051;-80
2021/07/24 08:12:16;;;;;;;14.45;12.95;;;23.50;99.90;;;;;;4966372;29;20520;-82
2021/07/24 08:14:43;;;;;;;15.13;13.60;;;23.40;99.90;;;;;;4956503;29;20059;-86
2021/07/24 08:17:10;;;;;;;17.33;14.25;;;23.40;99.90;;;;;;4944930;29;20094;-86
2021/07/24 08:19:37;;;;;;;16.42;13.80;;;23.30;99.90;;;;;;4943153;29;20087;-83
2021/07/24 08:22:04;;;;;;;16.60;13.77;;;23.20;99.90;;;;;;4942505;29;20501;-84
2021/07/24 08:24:31;;;;;;;21.73;14.57;;;23.30;99.90;;;;;;4942845;29;20645;-86
2021/07/24 08:26:58;;;;;;;18.52;13.73;;;23.30;99.90;;;;;;4943004;29;20052;-85
2021/07/24 08:29:26;;;;;;;16.67;13.98;;;23.30;99.90;;;;;;4942407;29;20094;-85
2021/07/24 08:31:53;;;;;;;16.88;13.40;;;23.30;99.90;;;;;;4943584;29;20063;-84
2021/07/24 08:34:20;;;;;;;16.45;13.80;;;23.40;99.90;;;;;;4943054;29;20111;-85
2021/07/24 08:36:47;;;;;;;18.38;14.45;;;23.30;99.90;;;;;;4942213;29;20115;-86
2021/07/24 08:39:13;;;;;;;17.73;13.90;;;23.20;99.90;;;;;;4941287;29;20051;-85
2021/07/24 08:41:42;;;;;;;15.82;14.07;;;23.10;99.90;;;;;;4942186;29;20130;-86
2021/07/24 08:44:12;;;;;;;17.20;13.35;;;23.00;99.90;;;;;;4945164;29;20062;-87
2021/07/24 08:46:40;;;;;;;17.33;14.25;;;22.90;99.90;;;;;;4955235;29;20420;-85
2021/07/24 08:49:07;;;;;;;16.92;13.52;;;22.90;99.90;;;;;;4952935;29;20082;-84
2021/07/24 08:51:37;;;;;;;16.80;14.10;;;23.00;99.90;;;;;;4952704;29;20087;-86
2021/07/24 08:54:06;;;;;;;16.73;14.38;;;22.90;99.90;;;;;;4941700;29;20158;-85
2021/07/24 08:56:40;;;;;;;18.15;14.93;;;23.00;99.90;;;;;;4943355;29;20062;-86
2021/07/24 08:59:11;;;;;;;18.95;14.48;;;23.00;99.90;;;;;;4941983;29;20052;-85
2021/07/24 09:01:48;;;;;;;16.83;14.75;;;23.00;99.90;;;;;;4942622;29;20477;-85
2021/07/24 09:04:15;;;;;;;18.58;14.13;;;23.10;99.90;;;;;;4944787;29;20090;-84
2021/07/24 09:06:42;;;;;;;16.35;13.63;;;23.20;99.90;;;;;;4945943;29;20150;-84
2021/07/24 09:09:11;;;;;;;18.70;14.57;;;23.20;99.90;;;;;;4946801;29;20047;-85
2021/07/24 09:11:38;;;;;;;20.13;14.70;;;23.30;99.90;;;;;;4949931;29;20072;-84
2021/07/24 09:14:05;;;;;;;17.17;14.48;;;23.30;99.90;;;;;;4953622;29;20127;-85
2021/07/24 09:16:33;;;;;;;19.45;14.85;;;23.30;99.90;;;;;;4952495;29;20374;-84
2021/07/24 09:19:02;;;;;;;16.83;14.68;;;23.20;99.90;;;;;;4946962;29;20051;-85
2021/07/24 09:21:30;;;;;;;21.65;14.65;;;23.10;99.90;;;;;;4944808;29;20054;-85
2021/07/24 09:24:18;;;;;;;18.25;15.13;;;23.10;99.90;;;;;;4942774;29;20051;-87
2021/07/24 09:26:45;;;;;;;17.05;14.73;;;23.00;99.90;;;;;;4941942;29;20135;-84
2021/07/24 09:29:14;;;;;;;18.05;14.70;;;23.00;99.90;;;;;;4940802;29;20164;-85
2021/07/24 09:31:41;;;;;;;21.35;15.45;;;23.00;99.90;;;;;;4941610;29;20143;-85
2021/07/24 09:34:13;;;;;;;19.50;15.02;;;22.90;99.90;;;;;;4941157;29;20079;-85
2021/07/24 09:36:40;;;;;;;20.15;16.63;;;22.90;99.90;;;;;;4946305;29;20108;-87
2021/07/24 09:39:12;;;;;;;19.58;16.33;;;22.80;99.90;;;;;;4949489;29;20135;-86
2021/07/24 09:41:41;;;;;;;21.10;17.63;;;22.70;99.90;;;;;;4949148;29;20520;-86
2021/07/24 09:44:08;;;;;;;19.98;16.15;;;22.70;99.90;;;;;;4940095;29;20132;-86
2021/07/24 09:46:36;;;;;;;20.45;16.48;;;22.70;99.90;;;;;;4926194;29;20116;-85
2021/07/24 09:49:15;;;;;;;24.15;18.02;;;22.70;99.90;;;;;;4926005;29;20124;-85
2021/07/24 09:51:43;;;;;;;20.55;17.63;;;22.60;99.90;;;;;;4930428;29;20139;-85
2021/07/24 09:54:26;;;;;;;26.35;18.33;;;22.50;99.90;;;;;;4929774;29;20154;-87
2021/07/24 09:56:53;;;;;;;24.00;19.33;;;22.30;99.90;;;;;;4945715;29;20046;-86
2021/07/24 09:59:22;;;;;;;20.48;18.10;;;22.20;99.90;;;;;;4950963;29;20086;-87
2021/07/24 10:01:56;;;;;;;20.75;17.63;;;22.20;99.90;;;;;;4938535;29;20055;-87
2021/07/24 10:04:31;;;;;;;20.67;18.23;;;22.20;99.90;;;;;;4932983;29;20048;-85
2021/07/24 10:07:00;;;;;;;27.65;18.25;;;22.20;99.90;;;;;;4946154;29;20127;-84
2021/07/24 10:09:33;;;;;;;21.40;18.13;;;22.30;99.90;;;;;;4933556;29;20068;-84
2021/07/24 10:12:00;;;;;;;21.35;18.80;;;22.40;99.90;;;;;;4931418;29;20036;-86
2021/07/24 10:14:28;;;;;;;20.63;18.45;;;22.30;99.90;;;;;;4931286;29;20111;-85
2021/07/24 10:16:57;;;;;;;20.25;18.10;;;22.40;99.90;;;;;;4932623;29;20327;-86
2021/07/24 10:19:25;;;;;;;27.38;18.00;;;22.40;99.90;;;;;;4948278;29;20061;-83
2021/07/24 10:21:55;;;;;;;22.75;18.20;;;22.50;99.90;;;;;;4952266;29;20067;-86
2021/07/24 10:24:24;;;;;;;21.85;18.00;;;22.60;99.90;;;;;;4946798;29;20044;-85
2021/07/24 10:26:55;;;;;;;21.65;18.48;;;22.70;99.90;;;;;;4944065;29;20078;-85
2021/07/24 10:29:28;;;;;;;24.60;17.88;;;22.90;99.90;;;;;;4939870;29;20052;-85
2021/07/24 10:32:00;;;;;;;20.10;17.42;;;23.00;99.90;;;;;;4935538;29;20095;-85
2021/07/24 10:34:29;;;;;;;20.67;17.60;;;23.10;99.90;;;;;;4933838;29;20552;-86
2021/07/24 10:36:58;;;;;;;22.48;17.85;;;23.20;99.90;;;;;;4932968;29;20112;-84
2021/07/24 10:39:25;;;;;;;21.80;18.05;;;23.40;99.90;;;;;;4928237;29;20052;-83
2021/07/24 10:41:52;;;;;;;19.80;17.38;;;23.50;99.90;;;;;;4932236;29;20056;-86
2021/07/24 10:44:40;;;;;;;21.52;18.10;;;23.60;99.90;;;;;;4928683;29;20063;-85
2021/07/24 10:47:34;;;;;;;21.80;18.15;;;23.70;99.90;;;;;;4931562;29;20048;-89
2021/07/24 10:50:02;;;;;;;24.45;17.88;;;23.70;99.90;;;;;;4918208;28;20579;-85
2021/07/24 10:53:14;;;;;;;23.77;17.77;;;23.80;99.90;;;;;;4967872;29;20657;-84
2021/07/24 10:59:21;;;;;;;22.58;18.50;;;23.90;99.90;;;;;;4970832;29;20059;-82
2021/07/24 11:01:49;;;;;;;20.55;16.75;;;23.90;99.90;;;;;;4966776;28;20110;-83
2021/07/24 11:04:43;;;;;;;21.73;16.67;;;23.90;99.90;;;;;;4971665;28;20765;-85
2021/07/24 11:07:49;;;;;;;22.17;17.08;;;23.90;99.90;;;;;;4965989;28;20069;-86
2021/07/24 11:10:17;;;;;;;22.73;17.42;;;23.90;99.90;;;;;;4955660;29;20501;-86
2021/07/24 11:12:46;;;;;;;21.80;17.60;;;23.80;99.90;;;;;;4968536;28;20141;-86
2021/07/24 11:15:17;;;;;;;17.95;16.05;;;23.60;99.90;;;;;;4977599;28;20141;-87
2021/07/24 11:17:44;;;;;;;23.40;16.93;;;23.60;99.90;;;;;;4963630;28;20146;-87
2021/07/24 11:20:46;;;;;;;19.73;16.58;;;23.60;99.90;;;;;;4964123;28;20111;-87
2021/07/24 11:23:13;;;;;;;19.20;16.20;;;23.50;99.90;;;;;;4971365;28;20082;-88
2021/07/24 11:25:42;;;;;;;20.85;16.50;;;23.60;99.90;;;;;;4976574;28;20481;-87
2021/07/24 11:28:20;;;;;;;18.02;16.00;;;23.60;99.90;;;;;;4974790;28;20441;-88
2021/07/24 11:30:56;;;;;;;20.92;16.80;;;23.60;99.90;;;;;;4969137;28;20055;-85
2021/07/24 11:33:27;;;;;;;20.00;16.73;;;23.70;99.90;;;;;;4966990;28;20138;-87
2021/07/24 11:36:01;;;;;;;21.13;15.80;;;23.70;99.90;;;;;;4976498;28;20074;-88
2021/07/24 11:38:28;;;;;;;20.15;17.42;;;23.60;99.90;;;;;;4974033;28;20054;-87
2021/07/24 11:41:06;;;;;;;21.25;17.33;;;23.40;99.90;;;;;;4985208;28;20138;-84
2021/07/24 11:43:37;;;;;;;22.80;17.48;;;23.10;99.90;;;;;;4985990;28;20426;-85
2021/07/24 11:46:07;;;;;;;20.30;17.60;;;22.90;99.90;;;;;;4988622;28;20130;-85
2021/07/24 11:48:38;;;;;;;24.83;18.23;;;22.80;99.90;;;;;;4988387;28;20438;-86
2021/07/24 11:51:08;;;;;;;20.38;17.85;;;22.70;99.90;;;;;;4983980;28;20050;-85
2021/07/24 11:53:37;;;;;;;25.33;18.08;;;22.60;99.90;;;;;;4985539;28;20109;-86
2021/07/24 11:56:09;;;;;;;22.58;18.73;;;22.60;99.90;;;;;;4986613;28;20050;-87
2021/07/24 11:58:38;;;;;;;29.05;19.40;;;22.50;99.90;;;;;;4989019;28;20058;-86
2021/07/24 12:01:23;;;;;;;27.90;19.45;;;22.60;99.90;;;;;;4990310;28;20082;-85
2021/07/24 12:04:05;;;;;;;22.98;20.17;;;22.60;99.90;;;;;;4985033;28;20066;-87
2021/07/24 12:06:32;;;;;;;25.92;19.33;;;22.60;99.90;;;;;;4984051;28;20053;-86
2021/07/24 12:09:00;;;;;;;26.88;20.90;;;22.50;99.90;;;;;;4986115;28;20050;-85
2021/07/24 12:11:27;;;;;;;27.00;20.40;;;22.50;99.90;;;;;;4983023;28;20054;-85
2021/07/24 12:14:04;;;;;;;28.33;21.50;;;22.50;99.90;;;;;;4980743;28;20090;-86
2021/07/24 12:16:37;;;;;;;28.52;22.10;;;22.40;99.90;;;;;;4985721;28;20051;-86
2021/07/24 12:19:12;;;;;;;29.10;23.00;;;22.30;99.90;;;;;;4976211;28;20051;-86
2021/07/24 12:21:39;;;;;;;29.63;22.48;;;22.10;99.90;;;;;;4961206;28;20062;-86
2021/07/24 12:24:08;;;;;;;27.13;23.50;;;21.90;99.90;;;;;;4961281;28;20074;-85
2021/07/24 12:26:39;;;;;;;32.08;23.17;;;21.80;99.90;;;;;;4974656;28;20043;-85
2021/07/24 12:29:25;;;;;;;32.05;24.27;;;21.70;99.90;;;;;;4965857;28;20065;-87
2021/07/24 12:31:53;;;;;;;29.30;24.15;;;21.70;99.90;;;;;;4985105;28;20050;-88
2021/07/24 12:34:20;;;;;;;31.33;25.10;;;21.60;99.90;;;;;;4982972;28;20150;-87
2021/07/24 12:36:52;;;;;;;31.33;25.75;;;21.70;99.90;;;;;;4983969;28;20130;-86
2021/07/24 12:39:21;;;;;;;35.35;26.92;;;21.70;99.90;;;;;;4981219;28;20337;-85
2021/07/24 12:41:59;;;;;;;33.75;27.42;;;21.60;99.90;;;;;;4984950;28;20085;-86
2021/07/24 12:44:28;;;;;;;35.53;27.40;;;21.50;99.90;;;;;;4979951;28;20089;-86
2021/07/24 12:47:11;;;;;;;34.38;28.20;;;21.40;99.90;;;;;;4979578;28;20054;-86
2021/07/24 12:49:41;;;;;;;37.13;28.30;;;21.30;99.90;;;;;;4979462;28;20139;-85
2021/07/24 12:52:25;;;;;;;35.72;27.88;;;21.30;99.90;;;;;;4980025;28;20419;-85
2021/07/24 12:55:06;;;;;;;33.03;29.40;;;21.30;99.90;;;;;;4982751;28;20127;-85